createdAt,value
2022-12-09T00:00:23.571Z,95303.88
2022-12-09T00:02:51.426Z,95303.91
2022-12-09T00:05:19.487Z,95305.50
2022-12-09T00:07:47.583Z,95303.50
2022-12-09T00:10:15.808Z,95301.47
2022-12-09T00:12:45.058Z,95286.50
2022-12-09T00:15:13.039Z,95303.28
2022-12-09T00:17:41.069Z,95307.97
2022-12-09T00:20:10.873Z,95310.38
2022-12-09T00:22:39.357Z,95318.47
2022-12-09T00:25:08.216Z,95312.41
2022-12-09T00:27:36.210Z,95317.25
2022-12-09T00:30:06.987Z,95298.22
2022-12-09T00:32:35.155Z,95309.19
2022-12-09T00:35:04.474Z,95312.81
2022-12-09T00:37:32.400Z,95304.94
2022-12-09T00:40:00.473Z,95311.59
2022-12-09T00:42:28.515Z,95308.38
2022-12-09T00:44:56.349Z,95306.34
2022-12-09T00:47:25.513Z,95295.00
2022-12-09T00:49:53.624Z,95307.75
2022-12-09T00:52:21.749Z,95300.06
2022-12-09T00:54:49.543Z,95304.34
2022-12-09T00:57:18.047Z,95294.00
2022-12-09T00:59:46.089Z,95290.13
2022-12-09T01:02:13.990Z,95287.72
2022-12-09T01:04:43.400Z,95282.88
2022-12-09T01:07:11.755Z,95275.75
2022-12-09T01:09:39.608Z,95278.38
2022-12-09T01:12:07.434Z,95264.66
2022-12-09T01:14:35.212Z,95267.47
2022-12-09T01:17:03.240Z,95261.41
2022-12-09T01:19:31.340Z,95258.97
2022-12-09T01:22:00.629Z,95260.38
2022-12-09T01:24:28.643Z,95257.38
2022-12-09T01:26:56.464Z,95264.44
2022-12-09T01:29:24.325Z,95262.81
2022-12-09T01:31:52.459Z,95265.84
2022-12-09T01:34:20.305Z,95228.00
2022-12-09T01:36:48.576Z,95252.50
2022-12-09T01:39:17.934Z,95246.84
2022-12-09T01:41:45.876Z,95238.34
2022-12-09T01:44:18.193Z,95252.91
2022-12-09T01:46:47.156Z,95256.13
2022-12-09T01:49:21.534Z,95256.94
2022-12-09T01:51:57.083Z,95247.81
2022-12-09T01:54:26.718Z,95244.00
2022-12-09T01:56:56.292Z,95235.50
2022-12-09T01:59:25.597Z,95223.75
2022-12-09T02:01:59.662Z,95228.59
2022-12-09T02:04:30.248Z,95229.44
2022-12-09T02:06:59.206Z,95232.22
2022-12-09T02:09:28.421Z,95232.25
2022-12-09T02:12:07.747Z,95229.03
2022-12-09T02:14:41.421Z,95213.00
2022-12-09T02:17:25.180Z,95215.66
2022-12-09T02:20:01.888Z,95206.94
2022-12-09T02:22:35.551Z,95193.19
2022-12-09T02:25:19.866Z,95187.13
2022-12-09T02:27:57.193Z,95189.34
2022-12-09T02:30:32.264Z,95189.16
2022-12-09T02:33:27.513Z,95190.97
2022-12-09T02:36:03.963Z,95186.53
2022-12-09T02:38:34.669Z,95185.75
2022-12-09T02:41:07.559Z,95181.25
2022-12-09T02:43:45.002Z,95174.75
2022-12-09T02:46:18.265Z,95167.50
2022-12-09T02:48:52.351Z,95170.47
2022-12-09T02:51:23.473Z,95165.44
2022-12-09T02:53:55.033Z,95147.28
2022-12-09T02:56:24.312Z,95155.94
2022-12-09T02:58:52.311Z,95155.91
2022-12-09T03:01:23.115Z,95149.06
2022-12-09T03:03:54.592Z,95149.28
2022-12-09T03:06:32.124Z,95144.84
2022-12-09T03:09:05.415Z,95152.53
2022-12-09T03:11:34.376Z,95138.38
2022-12-09T03:14:09.752Z,95135.28
2022-12-09T03:16:41.700Z,95136.31
2022-12-09T03:19:11.255Z,95140.41
2022-12-09T03:21:44.799Z,95135.09
2022-12-09T03:24:15.516Z,95103.97
2022-12-09T03:26:45.087Z,95100.25
2022-12-09T03:29:18.333Z,95107.50
2022-12-09T03:31:48.584Z,95102.44
2022-12-09T03:34:19.394Z,95093.31
2022-12-09T03:36:52.043Z,95099.41
2022-12-09T03:39:25.651Z,95103.06
2022-12-09T03:41:57.380Z,95097.63
2022-12-09T03:44:31.296Z,95096.66
2022-12-09T03:47:00.351Z,95087.91
2022-12-09T03:49:28.419Z,95082.84
2022-12-09T03:52:01.808Z,95078.78
2022-12-09T03:54:34.741Z,95070.66
2022-12-09T03:57:03.571Z,95073.09
2022-12-09T03:59:35.871Z,95072.75
2022-12-09T04:02:06.848Z,95072.00
2022-12-09T04:04:35.712Z,95070.78
2022-12-09T04:07:05.143Z,95067.00
2022-12-09T04:09:33.239Z,95068.81
2022-12-09T04:12:01.126Z,95059.31
2022-12-09T04:14:28.911Z,95040.91
2022-12-09T04:16:56.936Z,95053.34
2022-12-09T04:19:25.346Z,95055.78
2022-12-09T04:21:53.260Z,95061.69
2022-12-09T04:24:23.210Z,95063.50
2022-12-09T04:26:50.954Z,95052.44
2022-12-09T04:29:18.964Z,95055.00
2022-12-09T04:31:47.172Z,95057.81
2022-12-09T04:34:15.040Z,95049.88
2022-12-09T04:36:42.917Z,95040.66
2022-12-09T04:39:11.347Z,95045.44
2022-12-09T04:41:40.845Z,95042.44
2022-12-09T04:44:08.652Z,95039.44
2022-12-09T04:46:36.682Z,95027.50
2022-12-09T04:49:05.309Z,95017.53
2022-12-09T04:51:39.648Z,95023.75
2022-12-09T04:54:08.795Z,95021.75
2022-12-09T04:56:37.493Z,95012.25
2022-12-09T04:59:07.319Z,95013.66
2022-12-09T05:01:36.424Z,95019.69
2022-12-09T05:04:06.030Z,95018.28
2022-12-09T05:06:34.700Z,95014.97
2022-12-09T05:09:02.798Z,95021.75
2022-12-09T05:11:31.231Z,95016.66
2022-12-09T05:13:59.287Z,95015.88
2022-12-09T05:16:28.966Z,95023.00
2022-12-09T05:18:57.169Z,95014.25
2022-12-09T05:21:25.290Z,95016.84
2022-12-09T05:23:53.622Z,95019.13
2022-12-09T05:26:24.249Z,95018.66
2022-12-09T05:28:52.453Z,95016.41
2022-12-09T05:31:22.887Z,95017.53
2022-12-09T05:33:53.352Z,95018.00
2022-12-09T05:36:25.535Z,95021.50
2022-12-09T05:38:53.997Z,95014.78
2022-12-09T05:41:22.958Z,95018.00
2022-12-09T05:43:51.210Z,95018.63
2022-12-09T05:46:19.966Z,95022.84
2022-12-09T05:48:48.353Z,95020.78
2022-12-09T05:51:23.827Z,95015.78
2022-12-09T05:53:51.833Z,95015.13
2022-12-09T05:56:21.419Z,95009.69
2022-12-09T05:58:49.801Z,95015.38
2022-12-09T06:01:19.277Z,95010.94
2022-12-09T06:03:48.498Z,95011.09
2022-12-09T06:06:21.570Z,95003.41
2022-12-09T06:08:50.032Z,95001.38
2022-12-09T06:11:20.824Z,95002.56
2022-12-09T06:13:50.548Z,95004.28
2022-12-09T06:16:20.914Z,95007.00
2022-12-09T06:18:50.587Z,94999.28
2022-12-09T06:21:21.415Z,94995.91
2022-12-09T06:23:51.033Z,94994.09
2022-12-09T06:26:21.542Z,94994.09
2022-12-09T06:28:49.680Z,94986.91
2022-12-09T06:31:18.320Z,94982.38
2022-12-09T06:33:54.930Z,94982.81
2022-12-09T06:36:26.096Z,94988.38
2022-12-09T06:38:54.616Z,94989.19
2022-12-09T06:41:23.157Z,94977.19
2022-12-09T06:43:51.509Z,94968.63
2022-12-09T06:46:23.354Z,94978.34
2022-12-09T06:48:52.409Z,94982.84
2022-12-09T06:51:22.202Z,94982.84
2022-12-09T06:53:51.606Z,94970.25
2022-12-09T06:56:20.244Z,94978.31
2022-12-09T06:58:48.480Z,94978.16
2022-12-09T07:01:18.569Z,94978.31
2022-12-09T07:03:51.271Z,94980.31
2022-12-09T07:06:26.094Z,94982.94
2022-12-09T07:08:56.047Z,94969.03
2022-12-09T07:11:25.034Z,94963.78
2022-12-09T07:13:53.532Z,94978.72
2022-12-09T07:16:21.953Z,94971.78
2022-12-09T07:18:50.387Z,94972.66
2022-12-09T07:21:20.301Z,94979.88
2022-12-09T07:23:49.354Z,94978.03
2022-12-09T07:26:19.283Z,94973.81
2022-12-09T07:28:48.816Z,94964.63
2022-12-09T07:31:21.408Z,94961.78
2022-12-09T07:33:50.369Z,94977.03
2022-12-09T07:36:21.213Z,94970.22
2022-12-09T07:38:49.654Z,94970.13
2022-12-09T07:41:19.499Z,94977.41
2022-12-09T07:43:48.924Z,94963.72
2022-12-09T07:46:19.433Z,94964.50
2022-12-09T07:48:48.571Z,94973.41
2022-12-09T07:51:17.675Z,94972.59
2022-12-09T07:53:46.181Z,94968.56
2022-12-09T07:56:16.477Z,94970.75
2022-12-09T07:58:48.765Z,94959.44
2022-12-09T08:01:18.028Z,94964.47
2022-12-09T08:03:46.464Z,94956.72
2022-12-09T08:06:16.101Z,94959.59
2022-12-09T08:08:45.330Z,94947.47
2022-12-09T08:11:15.493Z,94944.66
2022-12-09T08:13:44.568Z,94955.06
2022-12-09T08:16:16.813Z,94960.97
2022-12-09T08:18:45.607Z,94962.41
2022-12-09T08:21:16.714Z,94960.78
2022-12-09T08:23:45.683Z,94968.53
2022-12-09T08:26:15.243Z,94947.47
2022-12-09T08:28:43.591Z,94961.56
2022-12-09T08:31:15.592Z,94955.50
2022-12-09T08:33:44.154Z,94952.22
2022-12-09T08:36:14.484Z,94961.91
2022-12-09T08:38:43.462Z,94952.72
2022-12-09T08:41:14.176Z,94947.69
2022-12-09T08:43:43.038Z,94949.22
2022-12-09T08:46:11.251Z,94943.28
2022-12-09T08:48:42.631Z,94949.38
2022-12-09T08:51:13.104Z,94942.31
2022-12-09T08:53:42.127Z,94939.75
2022-12-09T08:56:12.915Z,94933.78
2022-12-09T08:58:41.420Z,94925.03
2022-12-09T09:01:15.718Z,94930.66
2022-12-09T09:03:45.996Z,94934.16
2022-12-09T09:06:15.378Z,94939.09
2022-12-09T09:08:44.962Z,94941.09
2022-12-09T09:11:14.573Z,94942.16
2022-12-09T09:13:45.064Z,94951.31
2022-12-09T09:16:15.767Z,94955.72
2022-12-09T09:18:45.766Z,94953.63
2022-12-09T09:21:15.527Z,94948.34
2022-12-09T09:23:44.550Z,94954.06
2022-12-09T09:26:13.787Z,94956.97
2022-12-09T09:28:42.024Z,94952.88
2022-12-09T09:31:13.506Z,94952.88
2022-12-09T09:33:42.158Z,94946.88
2022-12-09T09:36:15.764Z,94942.75
2022-12-09T09:38:43.979Z,94949.19
2022-12-09T09:41:24.700Z,94939.72
2022-12-09T09:43:53.825Z,94943.84
2022-12-09T09:46:30.972Z,94936.59
2022-12-09T09:49:00.172Z,94933.22
2022-12-09T09:51:31.102Z,94943.41
2022-12-09T09:54:05.048Z,94927.72
2022-12-09T09:56:41.086Z,94932.06
2022-12-09T09:59:22.242Z,94929.84
2022-12-09T10:02:00.340Z,94930.91
2022-12-09T10:04:39.676Z,94925.41
2022-12-09T10:07:17.987Z,94927.94
2022-12-09T10:09:53.162Z,94915.19
2022-12-09T10:12:29.363Z,94916.16
2022-12-09T10:15:00.994Z,94901.06
2022-12-09T10:17:32.952Z,94904.56
2022-12-09T10:20:05.984Z,94919.25
2022-12-09T10:22:44.005Z,94917.47
2022-12-09T10:25:19.606Z,94907.72
2022-12-09T10:27:53.303Z,94902.53
2022-12-09T10:30:23.103Z,94896.06
2022-12-09T10:32:51.111Z,94894.19
2022-12-09T10:35:21.747Z,94893.78
2022-12-09T10:37:53.509Z,94895.06
2022-12-09T10:40:25.813Z,94877.56
2022-12-09T10:43:28.082Z,94888.03
2022-12-09T10:48:54.075Z,94891.22
2022-12-09T10:51:25.345Z,94884.91
2022-12-09T10:53:57.756Z,94883.69
2022-12-09T10:56:26.827Z,94879.28
2022-12-09T10:59:11.445Z,94873.53
2022-12-09T11:01:51.776Z,94874.22
2022-12-09T11:04:25.168Z,94874.03
2022-12-09T11:06:59.367Z,94867.78
2022-12-09T11:09:32.123Z,94869.41
2022-12-09T11:12:01.186Z,94867.22
2022-12-09T11:14:34.896Z,94867.47
2022-12-09T11:17:14.615Z,94866.31
2022-12-09T11:19:43.806Z,94863.13
2022-12-09T11:22:33.725Z,94864.63
2022-12-09T11:25:16.784Z,94857.59
2022-12-09T11:27:53.001Z,94861.53
2022-12-09T11:30:24.110Z,94854.50
2022-12-09T11:33:03.355Z,94851.66
2022-12-09T11:35:35.097Z,94841.03
2022-12-09T11:38:16.705Z,94848.88
2022-12-09T11:41:00.713Z,94845.19
2022-12-09T11:43:50.666Z,94847.75
2022-12-09T11:46:23.501Z,94843.59
2022-12-09T11:48:57.116Z,94840.44
2022-12-09T11:51:28.118Z,94827.75
2022-12-09T11:54:03.710Z,94837.34
2022-12-09T11:56:34.315Z,94831.72
2022-12-09T11:59:06.719Z,94830.91
2022-12-09T12:01:47.606Z,94838.06
2022-12-09T12:04:18.908Z,94830.13
2022-12-09T12:06:49.689Z,94830.47
2022-12-09T12:09:22.513Z,94832.28
2022-12-09T12:12:03.584Z,94828.06
2022-12-09T12:14:32.417Z,94844.91
2022-12-09T12:17:07.834Z,94831.72
2022-12-09T12:19:38.619Z,94825.50
2022-12-09T12:22:30.027Z,94837.16
2022-12-09T12:25:12.520Z,94839.13
2022-12-09T12:28:06.564Z,94832.38
2022-12-09T12:30:42.105Z,94835.53
2022-12-09T12:36:28.432Z,94842.88
2022-12-09T12:39:05.881Z,94841.13
2022-12-09T12:41:39.105Z,94837.38
2022-12-09T12:44:41.684Z,94831.44
2022-12-09T12:47:12.983Z,94832.16
2022-12-09T12:50:03.325Z,94832.75
2022-12-09T12:52:56.624Z,94826.31
2022-12-09T12:55:39.852Z,94830.13
2022-12-09T12:58:15.359Z,94837.38
2022-12-09T13:01:00.569Z,94837.28
2022-12-09T13:03:36.851Z,94834.88
2022-12-09T13:06:05.147Z,94840.00
2022-12-09T13:08:39.615Z,94836.00
2022-12-09T13:11:13.147Z,94841.69
2022-12-09T13:13:47.827Z,94837.16
2022-12-09T13:16:22.833Z,94833.69
2022-12-09T13:18:51.036Z,94843.28
2022-12-09T13:21:19.661Z,94844.09
2022-12-09T13:24:01.230Z,94849.06
2022-12-09T13:26:42.828Z,94848.50
2022-12-09T13:29:25.911Z,94857.19
2022-12-09T13:32:02.251Z,94848.25
2022-12-09T13:34:38.204Z,94857.34
2022-12-09T13:37:06.269Z,94852.94
2022-12-09T13:39:58.289Z,94852.75
2022-12-09T13:42:56.613Z,94864.06
2022-12-09T13:45:35.839Z,94865.28
2022-12-09T13:48:28.519Z,94869.88
2022-12-09T13:51:00.027Z,94855.00
2022-12-09T13:53:32.641Z,94862.88
2022-12-09T13:56:03.612Z,94861.19
2022-12-09T13:59:17.017Z,94869.00
2022-12-09T14:01:49.071Z,94877.53
2022-12-09T14:04:22.307Z,94880.31
2022-12-09T14:06:56.838Z,94883.53
2022-12-09T14:09:33.012Z,94865.47
2022-12-09T14:12:02.516Z,94897.63
2022-12-09T14:14:54.643Z,94894.50
2022-12-09T14:17:59.942Z,94889.22
2022-12-09T14:20:40.635Z,94899.94
2022-12-09T14:23:19.454Z,94899.13
2022-12-09T14:26:00.846Z,94896.66
2022-12-09T14:28:42.617Z,94898.81
2022-12-09T14:31:10.491Z,94886.50
2022-12-09T14:33:43.451Z,94900.03
2022-12-09T14:36:25.007Z,94901.47
2022-12-09T14:39:22.999Z,94907.94
2022-12-09T14:41:55.023Z,94913.59
2022-12-09T14:44:31.890Z,94916.88
2022-12-09T14:47:15.450Z,94916.16
2022-12-09T14:49:49.139Z,94923.59
2022-12-09T14:52:26.114Z,94925.50
2022-12-09T14:54:57.843Z,94931.06
2022-12-09T14:57:28.425Z,94927.81
2022-12-09T14:59:58.359Z,94920.94
2022-12-09T15:02:29.775Z,94933.13
2022-12-09T15:04:59.929Z,94932.31
2022-12-09T15:07:31.056Z,94934.69
2022-12-09T15:10:00.854Z,94937.00
2022-12-09T15:12:38.106Z,94944.50
2022-12-09T15:15:08.343Z,94934.78
2022-12-09T15:17:42.089Z,94942.44
2022-12-09T15:20:25.011Z,94950.97
2022-12-09T15:22:59.187Z,94959.34
2022-12-09T15:25:28.032Z,94950.22
2022-12-09T15:27:57.579Z,94948.22
2022-12-09T15:30:31.243Z,94965.66
2022-12-09T15:32:59.102Z,94958.81
2022-12-09T15:35:34.553Z,94959.94
2022-12-09T15:38:08.329Z,94962.78
2022-12-09T15:40:38.915Z,94943.44
2022-12-09T15:43:11.971Z,94947.47
2022-12-09T15:45:45.085Z,94951.28
2022-12-09T15:48:16.886Z,94948.66
2022-12-09T15:50:50.797Z,94954.50
2022-12-09T15:53:24.650Z,94966.50
2022-12-09T15:55:57.868Z,94974.81
2022-12-09T15:58:30.256Z,94978.41
2022-12-09T16:00:58.805Z,94964.09
2022-12-09T16:03:29.690Z,94975.03
2022-12-09T16:06:00.787Z,94974.34
2022-12-09T16:08:36.691Z,94981.00
2022-12-09T16:11:05.026Z,94974.91
2022-12-09T16:13:33.254Z,94969.06
2022-12-09T16:16:03.257Z,94975.16
2022-12-09T16:18:49.700Z,94968.69
2022-12-09T16:21:27.982Z,94970.56
2022-12-09T16:24:07.879Z,94958.03
2022-12-09T16:26:38.823Z,94981.88
2022-12-09T16:29:09.078Z,94981.09
2022-12-09T16:31:36.880Z,94982.53
2022-12-09T16:34:04.943Z,94990.63
2022-12-09T16:36:33.392Z,94974.81
2022-12-09T16:39:35.757Z,94983.94
2022-12-09T16:42:03.841Z,94993.66
2022-12-09T16:44:38.341Z,94957.16
2022-12-09T16:47:14.836Z,94985.94
2022-12-09T16:49:45.463Z,94988.34
2022-12-09T16:52:14.952Z,94989.09
2022-12-09T16:54:46.670Z,94995.53
2022-12-09T16:57:16.127Z,94993.28
2022-12-09T16:59:44.730Z,94996.41
2022-12-09T17:02:19.744Z,94998.66
2022-12-09T17:04:48.644Z,95010.34
2022-12-09T17:07:16.395Z,94996.56
2022-12-09T17:09:45.518Z,94992.97
2022-12-09T17:12:13.408Z,95005.31
2022-12-09T17:14:41.367Z,94998.41
2022-12-09T17:17:09.191Z,95000.19
2022-12-09T17:19:36.997Z,94996.81
2022-12-09T17:22:04.855Z,94998.81
2022-12-09T17:24:32.699Z,94998.41
2022-12-09T17:27:01.824Z,95005.31
2022-12-09T17:29:29.611Z,94998.47
2022-12-09T17:31:57.362Z,94998.25
2022-12-09T17:34:25.147Z,95003.78
2022-12-09T17:36:52.984Z,94997.69
2022-12-09T17:39:20.746Z,94993.25
2022-12-09T17:41:50.229Z,94985.25
2022-12-09T17:44:21.194Z,94992.81
2022-12-09T17:46:49.196Z,95002.25
2022-12-09T17:49:17.415Z,94986.78
2022-12-09T17:51:45.262Z,94978.31
2022-12-09T17:54:13.172Z,95001.06
2022-12-09T17:56:41.009Z,95018.25
2022-12-09T17:59:12.252Z,95012.59
2022-12-09T18:01:43.905Z,95013.22
2022-12-09T18:04:11.837Z,95016.25
2022-12-09T18:06:41.444Z,95004.47
2022-12-09T18:09:11.664Z,95006.94
2022-12-09T18:11:40.361Z,95012.19
2022-12-09T18:14:09.790Z,95009.97
2022-12-09T18:16:38.160Z,95013.81
2022-12-09T18:19:11.133Z,95019.47
2022-12-09T18:21:38.996Z,95026.53
2022-12-09T18:24:07.291Z,95028.41
2022-12-09T18:26:41.143Z,95038.81
2022-12-09T18:29:10.144Z,95031.66
2022-12-09T18:31:38.208Z,95031.06
2022-12-09T18:34:08.187Z,95032.41
2022-12-09T18:36:35.949Z,95041.06
2022-12-09T18:39:04.494Z,95033.03
2022-12-09T18:41:33.186Z,95023.13
2022-12-09T18:44:03.477Z,95012.84
2022-12-09T18:46:34.030Z,95019.63
2022-12-09T18:49:04.840Z,95031.47
2022-12-09T18:51:34.808Z,95021.94
2022-12-09T18:54:04.968Z,95032.28
2022-12-09T18:56:33.210Z,95031.56
2022-12-09T18:59:09.523Z,95035.81
2022-12-09T19:01:40.682Z,95035.97
2022-12-09T19:04:12.645Z,95039.38
2022-12-09T19:06:43.434Z,95041.28
2022-12-09T19:09:13.747Z,95047.16
2022-12-09T19:11:42.729Z,95043.16
2022-12-09T19:14:11.183Z,95046.00
2022-12-09T19:16:39.619Z,95058.78
2022-12-09T19:19:10.484Z,95047.78
2022-12-09T19:21:39.409Z,95056.09
2022-12-09T19:24:13.855Z,95040.00
2022-12-09T19:26:42.676Z,95054.34
2022-12-09T19:29:11.456Z,95053.03
2022-12-09T19:31:42.172Z,95056.72
2022-12-09T19:34:13.671Z,95047.44
2022-12-09T19:36:41.417Z,95039.97
2022-12-09T19:39:12.719Z,95044.25
2022-12-09T19:41:41.447Z,95039.63
2022-12-09T19:44:11.214Z,95048.38
2022-12-09T19:46:39.479Z,95051.38
2022-12-09T19:49:08.190Z,95053.34
2022-12-09T19:51:36.309Z,95057.44
2022-12-09T19:54:04.637Z,95049.97
2022-12-09T19:56:34.231Z,95066.69
2022-12-09T19:59:02.045Z,95068.50
2022-12-09T20:01:31.767Z,95067.19
2022-12-09T20:04:18.989Z,95065.31
2022-12-09T20:06:51.827Z,95063.06
2022-12-09T20:09:24.387Z,95067.56
2022-12-09T20:11:54.158Z,95065.03
2022-12-09T20:14:22.128Z,95072.72
2022-12-09T20:16:49.951Z,95064.72
2022-12-09T20:19:19.745Z,95068.59
2022-12-09T20:21:47.668Z,95065.94
2022-12-09T20:24:15.465Z,95074.41
2022-12-09T20:26:44.011Z,95092.66
2022-12-09T20:29:13.490Z,95071.66
2022-12-09T20:31:42.807Z,95093.53
2022-12-09T20:34:14.491Z,95099.19
2022-12-09T20:36:44.697Z,95092.97
2022-12-09T20:39:15.271Z,95103.66
2022-12-09T20:41:43.752Z,95102.00
2022-12-09T20:44:14.166Z,95095.97
2022-12-09T20:46:46.302Z,95100.81
2022-12-09T20:49:14.408Z,95106.53
2022-12-09T20:51:44.037Z,95096.03
2022-12-09T20:54:12.485Z,95092.38
2022-12-09T20:56:40.301Z,95102.66
2022-12-09T20:59:09.989Z,95106.50
2022-12-09T21:01:39.747Z,95094.13
2022-12-09T21:04:08.904Z,95100.81
2022-12-09T21:06:39.174Z,95104.09
2022-12-09T21:09:08.648Z,95099.56
2022-12-09T21:11:37.426Z,95103.38
2022-12-09T21:14:06.834Z,95111.66
2022-12-09T21:16:38.576Z,95110.81
2022-12-09T21:19:11.094Z,95115.13
2022-12-09T21:21:41.301Z,95111.06
2022-12-09T21:24:11.638Z,95115.38
2022-12-09T21:26:39.399Z,95117.94
2022-12-09T21:29:08.284Z,95118.19
2022-12-09T21:31:38.856Z,95120.38
2022-12-09T21:34:09.351Z,95119.78
2022-12-09T21:36:42.801Z,95114.75
2022-12-09T21:39:13.153Z,95114.94
2022-12-09T21:41:41.678Z,95119.63
2022-12-09T21:44:11.039Z,95108.81
2022-12-09T21:46:38.879Z,95111.72
2022-12-09T21:49:08.869Z,95108.69
2022-12-09T21:51:36.993Z,95113.09
2022-12-09T21:54:05.163Z,95115.28
2022-12-09T21:56:35.800Z,95117.53
2022-12-09T21:59:06.319Z,95121.59
2022-12-09T22:01:36.170Z,95111.88
2022-12-09T22:04:07.948Z,95109.00
2022-12-09T22:06:37.709Z,95116.31
2022-12-09T22:09:07.947Z,95108.81
2022-12-09T22:11:37.492Z,95115.47
2022-12-09T22:14:07.421Z,95105.94
2022-12-09T22:16:37.412Z,95123.19
2022-12-09T22:19:08.135Z,95122.13
2022-12-09T22:21:37.793Z,95129.56
2022-12-09T22:24:07.834Z,95091.13
2022-12-09T22:26:36.384Z,95115.66
2022-12-09T22:29:06.081Z,95113.06
2022-12-09T22:31:37.217Z,95136.25
2022-12-09T22:34:08.476Z,95134.00
2022-12-09T22:36:37.909Z,95134.38
2022-12-09T22:39:06.842Z,95129.13
2022-12-09T22:41:35.392Z,95125.50
2022-12-09T22:44:03.987Z,95129.34
2022-12-09T22:46:34.729Z,95130.56
2022-12-09T22:49:05.682Z,95141.34
2022-12-09T22:51:36.413Z,95136.44
2022-12-09T22:54:08.003Z,95137.41
2022-12-09T22:56:39.402Z,95137.63
2022-12-09T22:59:07.495Z,95137.25
2022-12-09T23:01:37.410Z,95144.19
2022-12-09T23:04:06.843Z,95137.13
2022-12-09T23:06:36.408Z,95138.75
2022-12-09T23:09:06.820Z,95127.81
2022-12-09T23:11:35.320Z,95129.47
2022-12-09T23:14:03.113Z,95132.72
2022-12-09T23:16:31.712Z,95120.72
2022-12-09T23:19:00.420Z,95127.31
2022-12-09T23:21:30.739Z,95123.84
2022-12-09T23:24:01.318Z,95115.72
2022-12-09T23:26:32.404Z,95125.25
2022-12-09T23:29:02.894Z,95119.81
2022-12-09T23:31:33.413Z,95106.50
2022-12-09T23:34:02.738Z,95118.00
2022-12-09T23:36:33.605Z,95091.59
2022-12-09T23:39:02.062Z,95116.22
2022-12-09T23:41:31.430Z,95121.69
2022-12-09T23:43:59.423Z,95124.69
2022-12-09T23:46:29.480Z,95120.66
2022-12-09T23:48:57.751Z,95121.00
2022-12-09T23:51:28.853Z,95117.31
2022-12-09T23:53:58.906Z,95121.19
2022-12-09T23:56:28.593Z,95123.47
2022-12-09T23:59:00.609Z,95120.53
